Main page
METAR-TAF:

METAR-TAF

Airports :

Litchfield Municipal Airport

Litchfield, Minnesota, United States

latitude: 45-05-50N, longitude: 094-30-26W, elevation: 1141 ft

Current weather observation

The report was made 19 minutes ago, at 19:36 UTC
Wind 3 mph from the Southwest
Temperature 12°F
Humidity 51%
Pressure 30.65 in. Hg
Visibility: 10 miles

METAR: KLJF 201936Z AUTO 23003KT 10SM M11/M19 A3065 RMK AO2

Time: 13:55 (19:55 UTC)


TAF: missing

Weather observations and forecasts of more than 4000 airports (METAR and TAF reports).

The available stations are represented by yellow and red dots on the map.

Hover mouse over dot to see the name of the station.

Then click to see weather observations and forecasts.

To change the map : click on the green buttons with a black cross to zoom in, on the green button with a dash to zoom out, or on the green arrows for adjacent maps.


METAR-TAF: